sensor_id;sensor_type;location;lat;lon;timestamp;P1;durP1;ratioP1;P2;durP2;ratioP2
75691;SDS011;64307;52.508;6.090;2023-03-13T00:01:11;23.08;;;3.83;;
75691;SDS011;64307;52.508;6.090;2023-03-13T00:03:40;17.80;;;3.88;;
75691;SDS011;64307;52.508;6.090;2023-03-13T00:08:31;16.20;;;2.50;;
75691;SDS011;64307;52.508;6.090;2023-03-13T00:10:56;19.17;;;3.25;;
75691;SDS011;64307;52.508;6.090;2023-03-13T00:13:22;14.57;;;3.45;;
75691;SDS011;64307;52.508;6.090;2023-03-13T00:15:47;21.33;;;3.03;;
75691;SDS011;64307;52.508;6.090;2023-03-13T00:18:12;15.52;;;2.35;;
75691;SDS011;64307;52.508;6.090;2023-03-13T00:20:38;14.32;;;2.78;;
75691;SDS011;64307;52.508;6.090;2023-03-13T00:23:03;11.23;;;2.65;;
75691;SDS011;64307;52.508;6.090;2023-03-13T00:25:28;16.50;;;4.57;;
75691;SDS011;64307;52.508;6.090;2023-03-13T00:27:54;16.77;;;3.60;;
75691;SDS011;64307;52.508;6.090;2023-03-13T00:30:19;16.48;;;4.10;;
75691;SDS011;64307;52.508;6.090;2023-03-13T00:32:45;14.67;;;2.90;;
75691;SDS011;64307;52.508;6.090;2023-03-13T00:35:14;21.30;;;4.88;;
75691;SDS011;64307;52.508;6.090;2023-03-13T00:37:40;19.90;;;4.05;;
75691;SDS011;64307;52.508;6.090;2023-03-13T00:40:06;13.82;;;2.80;;
75691;SDS011;64307;52.508;6.090;2023-03-13T00:42:32;17.23;;;3.83;;
75691;SDS011;64307;52.508;6.090;2023-03-13T00:44:58;24.05;;;3.60;;
75691;SDS011;64307;52.508;6.090;2023-03-13T00:47:23;18.85;;;4.35;;
75691;SDS011;64307;52.508;6.090;2023-03-13T00:49:49;20.40;;;3.10;;
75691;SDS011;64307;52.508;6.090;2023-03-13T00:52:14;19.45;;;4.30;;
75691;SDS011;64307;52.508;6.090;2023-03-13T00:54:39;16.95;;;3.65;;
75691;SDS011;64307;52.508;6.090;2023-03-13T00:57:05;19.65;;;4.05;;
75691;SDS011;64307;52.508;6.090;2023-03-13T00:59:30;15.98;;;2.63;;
75691;SDS011;64307;52.508;6.090;2023-03-13T01:01:56;18.15;;;3.60;;
75691;SDS011;64307;52.508;6.090;2023-03-13T01:04:21;19.85;;;3.65;;
75691;SDS011;64307;52.508;6.090;2023-03-13T01:06:47;21.38;;;2.63;;
75691;SDS011;64307;52.508;6.090;2023-03-13T01:09:13;17.73;;;4.15;;
75691;SDS011;64307;52.508;6.090;2023-03-13T01:11:39;14.73;;;2.47;;
75691;SDS011;64307;52.508;6.090;2023-03-13T01:14:07;23.10;;;3.40;;
75691;SDS011;64307;52.508;6.090;2023-03-13T01:16:34;21.05;;;2.95;;
75691;SDS011;64307;52.508;6.090;2023-03-13T01:19:03;15.80;;;2.80;;
75691;SDS011;64307;52.508;6.090;2023-03-13T01:21:30;23.45;;;3.20;;
75691;SDS011;64307;52.508;6.090;2023-03-13T01:23:56;20.55;;;4.78;;
75691;SDS011;64307;52.508;6.090;2023-03-13T01:26:23;13.50;;;2.40;;
75691;SDS011;64307;52.508;6.090;2023-03-13T01:28:49;15.88;;;3.05;;
75691;SDS011;64307;52.508;6.090;2023-03-13T01:31:19;20.92;;;2.78;;
75691;SDS011;64307;52.508;6.090;2023-03-13T01:33:46;21.30;;;5.05;;
75691;SDS011;64307;52.508;6.090;2023-03-13T01:36:12;15.65;;;4.45;;
75691;SDS011;64307;52.508;6.090;2023-03-13T01:38:38;20.15;;;3.17;;
75691;SDS011;64307;52.508;6.090;2023-03-13T01:41:04;17.17;;;4.10;;
75691;SDS011;64307;52.508;6.090;2023-03-13T01:43:31;18.05;;;4.13;;
75691;SDS011;64307;52.508;6.090;2023-03-13T01:51:19;16.58;;;3.15;;
75691;SDS011;64307;52.508;6.090;2023-03-13T01:53:54;13.20;;;3.03;;
75691;SDS011;64307;52.508;6.090;2023-03-13T01:56:30;15.15;;;3.83;;
75691;SDS011;64307;52.508;6.090;2023-03-13T01:59:01;15.50;;;3.40;;
75691;SDS011;64307;52.508;6.090;2023-03-13T02:01:29;13.38;;;3.72;;
75691;SDS011;64307;52.508;6.090;2023-03-13T02:03:55;13.07;;;4.07;;
75691;SDS011;64307;52.508;6.090;2023-03-13T02:06:21;13.65;;;3.97;;
75691;SDS011;64307;52.508;6.090;2023-03-13T02:08:55;14.45;;;3.20;;
75691;SDS011;64307;52.508;6.090;2023-03-13T02:11:28;18.13;;;3.08;;
75691;SDS011;64307;52.508;6.090;2023-03-13T02:13:59;12.90;;;3.85;;
75691;SDS011;64307;52.508;6.090;2023-03-13T02:16:27;10.07;;;3.28;;
75691;SDS011;64307;52.508;6.090;2023-03-13T02:18:53;13.95;;;2.72;;
75691;SDS011;64307;52.508;6.090;2023-03-13T02:21:41;11.27;;;3.30;;
75691;SDS011;64307;52.508;6.090;2023-03-13T02:27:07;11.70;;;3.30;;
75691;SDS011;64307;52.508;6.090;2023-03-13T02:29:32;11.60;;;3.63;;
75691;SDS011;64307;52.508;6.090;2023-03-13T02:31:58;13.80;;;3.95;;
75691;SDS011;64307;52.508;6.090;2023-03-13T02:34:25;8.90;;;3.60;;
75691;SDS011;64307;52.508;6.090;2023-03-13T02:36:54;8.10;;;2.47;;
75691;SDS011;64307;52.508;6.090;2023-03-13T02:39:21;4.35;;;1.83;;
75691;SDS011;64307;52.508;6.090;2023-03-13T02:41:49;7.32;;;3.47;;
75691;SDS011;64307;52.508;6.090;2023-03-13T02:44:16;6.70;;;2.35;;
75691;SDS011;64307;52.508;6.090;2023-03-13T02:46:45;6.15;;;1.58;;
75691;SDS011;64307;52.508;6.090;2023-03-13T02:49:24;5.40;;;1.63;;
75691;SDS011;64307;52.508;6.090;2023-03-13T02:51:52;5.00;;;1.67;;
75691;SDS011;64307;52.508;6.090;2023-03-13T02:54:23;4.82;;;1.75;;
75691;SDS011;64307;52.508;6.090;2023-03-13T02:56:54;4.82;;;1.38;;
75691;SDS011;64307;52.508;6.090;2023-03-13T02:59:22;7.18;;;1.88;;
75691;SDS011;64307;52.508;6.090;2023-03-13T03:01:48;5.43;;;2.72;;
75691;SDS011;64307;52.508;6.090;2023-03-13T03:04:16;4.93;;;2.25;;
75691;SDS011;64307;52.508;6.090;2023-03-13T03:06:45;4.28;;;1.42;;
75691;SDS011;64307;52.508;6.090;2023-03-13T03:09:10;7.25;;;1.83;;
75691;SDS011;64307;52.508;6.090;2023-03-13T03:11:35;4.72;;;2.75;;
75691;SDS011;64307;52.508;6.090;2023-03-13T03:14:02;6.05;;;1.90;;
75691;SDS011;64307;52.508;6.090;2023-03-13T03:16:27;3.88;;;2.15;;
75691;SDS011;64307;52.508;6.090;2023-03-13T03:18:53;6.77;;;1.50;;
75691;SDS011;64307;52.508;6.090;2023-03-13T03:21:18;6.13;;;1.45;;
75691;SDS011;64307;52.508;6.090;2023-03-13T03:23:45;5.90;;;1.73;;
75691;SDS011;64307;52.508;6.090;2023-03-13T03:26:10;5.53;;;1.42;;
75691;SDS011;64307;52.508;6.090;2023-03-13T03:28:36;5.10;;;2.30;;
75691;SDS011;64307;52.508;6.090;2023-03-13T03:31:04;4.27;;;2.13;;
75691;SDS011;64307;52.508;6.090;2023-03-13T03:33:34;3.90;;;2.30;;
75691;SDS011;64307;52.508;6.090;2023-03-13T03:38:27;4.57;;;2.25;;
75691;SDS011;64307;52.508;6.090;2023-03-13T03:40:53;4.20;;;2.90;;
75691;SDS011;64307;52.508;6.090;2023-03-13T03:43:18;3.70;;;1.83;;
75691;SDS011;64307;52.508;6.090;2023-03-13T03:45:44;5.60;;;1.85;;
75691;SDS011;64307;52.508;6.090;2023-03-13T03:48:09;4.00;;;2.03;;
75691;SDS011;64307;52.508;6.090;2023-03-13T03:50:34;5.70;;;2.92;;
75691;SDS011;64307;52.508;6.090;2023-03-13T03:52:59;6.33;;;3.67;;
75691;SDS011;64307;52.508;6.090;2023-03-13T03:55:25;4.33;;;3.07;;
75691;SDS011;64307;52.508;6.090;2023-03-13T03:57:50;6.55;;;3.17;;
75691;SDS011;64307;52.508;6.090;2023-03-13T04:02:43;4.45;;;1.90;;
75691;SDS011;64307;52.508;6.090;2023-03-13T04:07:33;4.63;;;2.20;;
75691;SDS011;64307;52.508;6.090;2023-03-13T04:09:58;4.38;;;2.15;;
75691;SDS011;64307;52.508;6.090;2023-03-13T04:12:24;4.22;;;2.70;;
75691;SDS011;64307;52.508;6.090;2023-03-13T04:17:14;5.53;;;3.33;;
75691;SDS011;64307;52.508;6.090;2023-03-13T04:22:05;5.93;;;3.80;;
75691;SDS011;64307;52.508;6.090;2023-03-13T04:26:55;5.50;;;2.97;;
75691;SDS011;64307;52.508;6.090;2023-03-13T04:31:46;7.87;;;3.10;;
75691;SDS011;64307;52.508;6.090;2023-03-13T04:36:36;6.63;;;3.63;;
75691;SDS011;64307;52.508;6.090;2023-03-13T04:41:27;9.20;;;4.03;;
75691;SDS011;64307;52.508;6.090;2023-03-13T04:46:17;8.37;;;5.23;;
75691;SDS011;64307;52.508;6.090;2023-03-13T04:51:08;6.70;;;4.40;;
75691;SDS011;64307;52.508;6.090;2023-03-13T04:55:59;7.17;;;4.50;;
75691;SDS011;64307;52.508;6.090;2023-03-13T05:00:49;7.47;;;4.67;;
75691;SDS011;64307;52.508;6.090;2023-03-13T05:03:16;6.47;;;4.00;;
75691;SDS011;64307;52.508;6.090;2023-03-13T05:08:07;8.50;;;4.50;;
75691;SDS011;64307;52.508;6.090;2023-03-13T05:10:34;6.65;;;3.83;;
75691;SDS011;64307;52.508;6.090;2023-03-13T05:15:25;5.83;;;2.80;;
75691;SDS011;64307;52.508;6.090;2023-03-13T05:20:15;8.27;;;2.90;;
75691;SDS011;64307;52.508;6.090;2023-03-13T05:22:41;6.38;;;4.05;;
75691;SDS011;64307;52.508;6.090;2023-03-13T05:27:31;10.10;;;4.90;;
75691;SDS011;64307;52.508;6.090;2023-03-13T05:32:22;5.70;;;3.63;;
75691;SDS011;64307;52.508;6.090;2023-03-13T05:37:12;6.57;;;5.10;;
75691;SDS011;64307;52.508;6.090;2023-03-13T05:42:03;8.03;;;4.90;;
75691;SDS011;64307;52.508;6.090;2023-03-13T05:44:28;5.72;;;3.80;;
75691;SDS011;64307;52.508;6.090;2023-03-13T05:46:53;5.93;;;3.45;;
75691;SDS011;64307;52.508;6.090;2023-03-13T05:51:44;6.23;;;2.87;;
75691;SDS011;64307;52.508;6.090;2023-03-13T05:54:09;7.05;;;4.20;;
75691;SDS011;64307;52.508;6.090;2023-03-13T05:59:00;6.00;;;4.73;;
75691;SDS011;64307;52.508;6.090;2023-03-13T06:01:25;11.25;;;4.97;;
75691;SDS011;64307;52.508;6.090;2023-03-13T06:03:50;7.18;;;2.72;;
75691;SDS011;64307;52.508;6.090;2023-03-13T06:06:16;13.45;;;4.47;;
75691;SDS011;64307;52.508;6.090;2023-03-13T06:08:41;5.50;;;2.28;;
75691;SDS011;64307;52.508;6.090;2023-03-13T06:11:06;9.85;;;4.05;;
75691;SDS011;64307;52.508;6.090;2023-03-13T06:13:32;11.35;;;2.83;;
75691;SDS011;64307;52.508;6.090;2023-03-13T06:18:23;10.70;;;2.67;;
75691;SDS011;64307;52.508;6.090;2023-03-13T06:23:14;9.18;;;2.15;;
75691;SDS011;64307;52.508;6.090;2023-03-13T06:25:40;7.05;;;3.33;;
75691;SDS011;64307;52.508;6.090;2023-03-13T06:28:06;6.40;;;2.80;;
75691;SDS011;64307;52.508;6.090;2023-03-13T06:32:56;11.23;;;3.57;;
75691;SDS011;64307;52.508;6.090;2023-03-13T06:35:22;10.30;;;2.40;;
75691;SDS011;64307;52.508;6.090;2023-03-13T06:37:47;6.17;;;3.20;;
75691;SDS011;64307;52.508;6.090;2023-03-13T06:40:12;10.13;;;2.13;;
75691;SDS011;64307;52.508;6.090;2023-03-13T06:42:38;7.75;;;3.17;;
75691;SDS011;64307;52.508;6.090;2023-03-13T06:45:03;6.97;;;1.58;;
75691;SDS011;64307;52.508;6.090;2023-03-13T06:47:29;6.65;;;2.00;;
75691;SDS011;64307;52.508;6.090;2023-03-13T06:49:56;7.47;;;2.10;;
75691;SDS011;64307;52.508;6.090;2023-03-13T06:52:21;6.07;;;2.30;;
75691;SDS011;64307;52.508;6.090;2023-03-13T06:54:47;9.33;;;1.73;;
75691;SDS011;64307;52.508;6.090;2023-03-13T06:57:12;9.17;;;2.57;;
75691;SDS011;64307;52.508;6.090;2023-03-13T06:59:37;10.13;;;2.35;;
75691;SDS011;64307;52.508;6.090;2023-03-13T07:02:03;8.45;;;3.13;;
75691;SDS011;64307;52.508;6.090;2023-03-13T07:04:28;11.57;;;3.30;;
75691;SDS011;64307;52.508;6.090;2023-03-13T07:06:53;7.70;;;2.47;;
75691;SDS011;64307;52.508;6.090;2023-03-13T07:09:19;6.63;;;2.03;;
75691;SDS011;64307;52.508;6.090;2023-03-13T07:11:44;6.93;;;1.83;;
75691;SDS011;64307;52.508;6.090;2023-03-13T07:14:11;8.32;;;2.10;;
75691;SDS011;64307;52.508;6.090;2023-03-13T07:16:37;7.75;;;2.15;;
75691;SDS011;64307;52.508;6.090;2023-03-13T07:19:02;7.82;;;2.33;;
75691;SDS011;64307;52.508;6.090;2023-03-13T07:21:27;6.53;;;2.97;;
75691;SDS011;64307;52.508;6.090;2023-03-13T07:23:53;71.00;;;8.52;;
75691;SDS011;64307;52.508;6.090;2023-03-13T07:26:19;9.65;;;2.08;;
75691;SDS011;64307;52.508;6.090;2023-03-13T07:28:44;5.30;;;2.55;;
75691;SDS011;64307;52.508;6.090;2023-03-13T07:31:11;8.90;;;1.37;;
75691;SDS011;64307;52.508;6.090;2023-03-13T07:33:41;6.28;;;2.45;;
75691;SDS011;64307;52.508;6.090;2023-03-13T07:36:08;8.40;;;3.28;;
75691;SDS011;64307;52.508;6.090;2023-03-13T07:38:34;8.20;;;2.35;;
75691;SDS011;64307;52.508;6.090;2023-03-13T07:41:00;7.47;;;2.38;;
75691;SDS011;64307;52.508;6.090;2023-03-13T07:43:25;7.80;;;1.83;;
75691;SDS011;64307;52.508;6.090;2023-03-13T07:45:55;4.78;;;2.00;;
75691;SDS011;64307;52.508;6.090;2023-03-13T07:48:21;6.07;;;2.15;;
75691;SDS011;64307;52.508;6.090;2023-03-13T07:50:48;7.28;;;2.08;;
75691;SDS011;64307;52.508;6.090;2023-03-13T07:53:13;10.15;;;2.03;;
75691;SDS011;64307;52.508;6.090;2023-03-13T07:55:50;5.68;;;2.42;;
75691;SDS011;64307;52.508;6.090;2023-03-13T07:58:26;7.45;;;2.35;;
75691;SDS011;64307;52.508;6.090;2023-03-13T08:00:53;3.85;;;2.15;;
75691;SDS011;64307;52.508;6.090;2023-03-13T08:03:19;84.25;;;7.28;;
75691;SDS011;64307;52.508;6.090;2023-03-13T08:05:45;4.10;;;2.05;;
75691;SDS011;64307;52.508;6.090;2023-03-13T08:08:10;5.90;;;2.35;;
75691;SDS011;64307;52.508;6.090;2023-03-13T08:10:36;5.47;;;2.67;;
75691;SDS011;64307;52.508;6.090;2023-03-13T08:13:01;5.50;;;2.20;;
75691;SDS011;64307;52.508;6.090;2023-03-13T08:15:27;5.97;;;1.98;;
75691;SDS011;64307;52.508;6.090;2023-03-13T08:17:52;7.47;;;1.42;;
75691;SDS011;64307;52.508;6.090;2023-03-13T08:20:18;7.13;;;1.63;;
75691;SDS011;64307;52.508;6.090;2023-03-13T08:22:46;4.55;;;1.40;;
75691;SDS011;64307;52.508;6.090;2023-03-13T08:25:12;4.00;;;2.05;;
75691;SDS011;64307;52.508;6.090;2023-03-13T08:27:38;3.97;;;0.90;;
75691;SDS011;64307;52.508;6.090;2023-03-13T08:30:03;5.27;;;2.20;;
75691;SDS011;64307;52.508;6.090;2023-03-13T08:32:32;4.32;;;1.90;;
75691;SDS011;64307;52.508;6.090;2023-03-13T08:34:58;5.05;;;1.33;;
75691;SDS011;64307;52.508;6.090;2023-03-13T08:37:25;3.85;;;0.98;;
75691;SDS011;64307;52.508;6.090;2023-03-13T08:39:50;4.15;;;1.48;;
75691;SDS011;64307;52.508;6.090;2023-03-13T08:42:15;4.45;;;1.00;;
75691;SDS011;64307;52.508;6.090;2023-03-13T08:44:41;3.33;;;0.90;;
75691;SDS011;64307;52.508;6.090;2023-03-13T08:47:07;30.00;;;3.22;;
75691;SDS011;64307;52.508;6.090;2023-03-13T08:49:32;5.93;;;1.77;;
75691;SDS011;64307;52.508;6.090;2023-03-13T08:51:58;5.28;;;0.98;;
75691;SDS011;64307;52.508;6.090;2023-03-13T08:54:24;3.75;;;1.40;;
75691;SDS011;64307;52.508;6.090;2023-03-13T08:56:50;3.90;;;1.25;;
75691;SDS011;64307;52.508;6.090;2023-03-13T08:59:15;8.50;;;1.98;;
75691;SDS011;64307;52.508;6.090;2023-03-13T09:01:41;7.03;;;1.73;;
75691;SDS011;64307;52.508;6.090;2023-03-13T09:04:06;4.35;;;1.30;;
75691;SDS011;64307;52.508;6.090;2023-03-13T09:06:32;4.50;;;0.75;;
75691;SDS011;64307;52.508;6.090;2023-03-13T09:08:59;5.22;;;1.42;;
75691;SDS011;64307;52.508;6.090;2023-03-13T09:11:24;5.05;;;1.45;;
75691;SDS011;64307;52.508;6.090;2023-03-13T09:13:50;5.18;;;0.90;;
75691;SDS011;64307;52.508;6.090;2023-03-13T09:16:16;3.85;;;0.77;;
75691;SDS011;64307;52.508;6.090;2023-03-13T09:18:52;4.40;;;1.27;;
75691;SDS011;64307;52.508;6.090;2023-03-13T09:21:19;17.50;;;2.17;;
75691;SDS011;64307;52.508;6.090;2023-03-13T09:23:46;6.30;;;0.80;;
75691;SDS011;64307;52.508;6.090;2023-03-13T09:26:12;6.25;;;0.98;;
75691;SDS011;64307;52.508;6.090;2023-03-13T09:28:38;11.38;;;1.13;;
75691;SDS011;64307;52.508;6.090;2023-03-13T09:31:07;3.58;;;1.48;;
75691;SDS011;64307;52.508;6.090;2023-03-13T09:33:32;5.28;;;2.00;;
75691;SDS011;64307;52.508;6.090;2023-03-13T09:35:58;4.75;;;1.55;;
75691;SDS011;64307;52.508;6.090;2023-03-13T09:38:23;4.45;;;1.63;;
75691;SDS011;64307;52.508;6.090;2023-03-13T09:40:49;9.02;;;2.08;;
75691;SDS011;64307;52.508;6.090;2023-03-13T09:43:25;5.45;;;1.83;;
75691;SDS011;64307;52.508;6.090;2023-03-13T09:46:03;5.78;;;1.58;;
75691;SDS011;64307;52.508;6.090;2023-03-13T09:48:35;7.40;;;0.90;;
75691;SDS011;64307;52.508;6.090;2023-03-13T09:51:37;5.03;;;2.00;;
75691;SDS011;64307;52.508;6.090;2023-03-13T09:54:02;4.75;;;1.50;;
75691;SDS011;64307;52.508;6.090;2023-03-13T09:56:41;5.57;;;1.00;;
75691;SDS011;64307;52.508;6.090;2023-03-13T09:59:14;6.85;;;0.73;;
75691;SDS011;64307;52.508;6.090;2023-03-13T10:01:43;6.07;;;1.65;;
75691;SDS011;64307;52.508;6.090;2023-03-13T10:06:59;6.05;;;2.05;;
75691;SDS011;64307;52.508;6.090;2023-03-13T10:09:29;4.80;;;1.60;;
75691;SDS011;64307;52.508;6.090;2023-03-13T10:12:05;5.50;;;1.20;;
75691;SDS011;64307;52.508;6.090;2023-03-13T10:20:23;7.03;;;2.20;;
75691;SDS011;64307;52.508;6.090;2023-03-13T10:22:58;7.40;;;2.33;;
75691;SDS011;64307;52.508;6.090;2023-03-13T10:27:59;5.13;;;1.35;;
75691;SDS011;64307;52.508;6.090;2023-03-13T10:32:59;3.70;;;0.60;;
75691;SDS011;64307;52.508;6.090;2023-03-13T10:35:42;4.93;;;0.82;;
75691;SDS011;64307;52.508;6.090;2023-03-13T10:38:10;5.93;;;2.00;;
75691;SDS011;64307;52.508;6.090;2023-03-13T10:40:35;3.83;;;0.85;;
75691;SDS011;64307;52.508;6.090;2023-03-13T10:43:03;6.50;;;1.92;;
75691;SDS011;64307;52.508;6.090;2023-03-13T10:45:34;4.72;;;0.73;;
75691;SDS011;64307;52.508;6.090;2023-03-13T10:48:02;4.03;;;1.15;;
75691;SDS011;64307;52.508;6.090;2023-03-13T10:50:49;4.78;;;0.98;;
75691;SDS011;64307;52.508;6.090;2023-03-13T10:53:21;4.00;;;0.45;;
75691;SDS011;64307;52.508;6.090;2023-03-13T11:01:08;4.55;;;1.67;;
75691;SDS011;64307;52.508;6.090;2023-03-13T11:03:52;3.15;;;0.63;;
75691;SDS011;64307;52.508;6.090;2023-03-13T11:06:24;4.03;;;0.60;;
75691;SDS011;64307;52.508;6.090;2023-03-13T11:09:04;2.80;;;0.63;;
75691;SDS011;64307;52.508;6.090;2023-03-13T11:16:57;5.57;;;1.70;;
75691;SDS011;64307;52.508;6.090;2023-03-13T11:19:29;3.10;;;0.50;;
75691;SDS011;64307;52.508;6.090;2023-03-13T11:22:13;4.38;;;0.50;;
75691;SDS011;64307;52.508;6.090;2023-03-13T11:30:22;5.07;;;0.90;;
75691;SDS011;64307;52.508;6.090;2023-03-13T11:36:04;3.72;;;0.73;;
75691;SDS011;64307;52.508;6.090;2023-03-13T11:38:44;9.23;;;1.63;;
75691;SDS011;64307;52.508;6.090;2023-03-13T11:44:08;4.75;;;1.42;;
75691;SDS011;64307;52.508;6.090;2023-03-13T11:49:27;6.07;;;1.15;;
75691;SDS011;64307;52.508;6.090;2023-03-13T11:54:46;3.75;;;1.15;;
75691;SDS011;64307;52.508;6.090;2023-03-13T12:02:55;5.68;;;1.27;;
75691;SDS011;64307;52.508;6.090;2023-03-13T12:05:38;5.55;;;0.82;;
75691;SDS011;64307;52.508;6.090;2023-03-13T12:08:11;3.38;;;1.45;;
75691;SDS011;64307;52.508;6.090;2023-03-13T12:10:46;5.32;;;1.00;;
75691;SDS011;64307;52.508;6.090;2023-03-13T12:13:20;8.57;;;0.82;;
75691;SDS011;64307;52.508;6.090;2023-03-13T12:15:53;4.93;;;1.45;;
75691;SDS011;64307;52.508;6.090;2023-03-13T12:18:32;5.18;;;1.38;;
75691;SDS011;64307;52.508;6.090;2023-03-13T12:26:21;2.53;;;0.88;;
75691;SDS011;64307;52.508;6.090;2023-03-13T12:31:39;3.63;;;0.82;;
75691;SDS011;64307;52.508;6.090;2023-03-13T12:34:13;3.97;;;0.63;;
75691;SDS011;64307;52.508;6.090;2023-03-13T12:36:50;5.45;;;0.60;;
75691;SDS011;64307;52.508;6.090;2023-03-13T12:45:03;4.00;;;1.05;;
75691;SDS011;64307;52.508;6.090;2023-03-13T12:47:51;5.03;;;0.57;;
75691;SDS011;64307;52.508;6.090;2023-03-13T13:06:21;8.65;;;2.03;;
75691;SDS011;64307;52.508;6.090;2023-03-13T13:16:48;6.85;;;1.85;;
75691;SDS011;64307;52.508;6.090;2023-03-13T13:22:43;7.30;;;1.70;;
75691;SDS011;64307;52.508;6.090;2023-03-13T13:30:27;13.85;;;1.90;;
75691;SDS011;64307;52.508;6.090;2023-03-13T13:32:48;8.50;;;1.02;;
75691;SDS011;64307;52.508;6.090;2023-03-13T13:36:14;8.25;;;0.80;;
75691;SDS011;64307;52.508;6.090;2023-03-13T13:43:33;3.92;;;0.70;;
75691;SDS011;64307;52.508;6.090;2023-03-13T13:46:04;7.07;;;1.05;;
75691;SDS011;64307;52.508;6.090;2023-03-13T13:48:39;6.47;;;1.10;;
75691;SDS011;64307;52.508;6.090;2023-03-13T13:53:45;8.27;;;1.02;;
75691;SDS011;64307;52.508;6.090;2023-03-13T13:58:53;9.32;;;1.33;;
75691;SDS011;64307;52.508;6.090;2023-03-13T14:01:22;10.57;;;1.13;;
75691;SDS011;64307;52.508;6.090;2023-03-13T14:03:49;8.18;;;1.25;;
75691;SDS011;64307;52.508;6.090;2023-03-13T14:06:18;8.43;;;1.27;;
75691;SDS011;64307;52.508;6.090;2023-03-13T14:08:49;8.73;;;1.27;;
75691;SDS011;64307;52.508;6.090;2023-03-13T14:11:29;7.43;;;1.00;;
75691;SDS011;64307;52.508;6.090;2023-03-13T14:14:07;7.10;;;0.93;;
75691;SDS011;64307;52.508;6.090;2023-03-13T14:16:32;8.18;;;1.35;;
75691;SDS011;64307;52.508;6.090;2023-03-13T14:18:58;11.70;;;1.50;;
75691;SDS011;64307;52.508;6.090;2023-03-13T14:21:23;8.25;;;1.00;;
75691;SDS011;64307;52.508;6.090;2023-03-13T14:23:51;5.13;;;1.00;;
75691;SDS011;64307;52.508;6.090;2023-03-13T14:26:26;8.85;;;1.30;;
75691;SDS011;64307;52.508;6.090;2023-03-13T14:28:54;6.28;;;1.80;;
75691;SDS011;64307;52.508;6.090;2023-03-13T14:31:27;14.82;;;2.55;;
75691;SDS011;64307;52.508;6.090;2023-03-13T14:34:02;10.77;;;2.22;;
75691;SDS011;64307;52.508;6.090;2023-03-13T14:36:30;11.80;;;1.13;;
75691;SDS011;64307;52.508;6.090;2023-03-13T14:39:11;12.95;;;1.52;;
75691;SDS011;64307;52.508;6.090;2023-03-13T14:41:44;13.60;;;1.83;;
75691;SDS011;64307;52.508;6.090;2023-03-13T14:44:33;12.63;;;1.38;;
75691;SDS011;64307;52.508;6.090;2023-03-13T14:46:59;9.65;;;1.70;;
75691;SDS011;64307;52.508;6.090;2023-03-13T14:49:28;10.40;;;1.98;;
75691;SDS011;64307;52.508;6.090;2023-03-13T14:52:42;18.48;;;2.80;;
75691;SDS011;64307;52.508;6.090;2023-03-13T14:54:54;9.45;;;1.60;;
75691;SDS011;64307;52.508;6.090;2023-03-13T14:57:26;10.10;;;2.17;;
75691;SDS011;64307;52.508;6.090;2023-03-13T14:59:52;10.48;;;2.20;;
75691;SDS011;64307;52.508;6.090;2023-03-13T15:02:20;11.60;;;2.53;;
75691;SDS011;64307;52.508;6.090;2023-03-13T15:04:58;10.73;;;2.00;;
75691;SDS011;64307;52.508;6.090;2023-03-13T15:07:44;10.68;;;2.50;;
75691;SDS011;64307;52.508;6.090;2023-03-13T15:10:22;12.90;;;2.28;;
75691;SDS011;64307;52.508;6.090;2023-03-13T15:12:49;14.70;;;2.47;;
75691;SDS011;64307;52.508;6.090;2023-03-13T15:15:15;11.93;;;1.60;;
75691;SDS011;64307;52.508;6.090;2023-03-13T15:17:41;10.32;;;2.20;;
75691;SDS011;64307;52.508;6.090;2023-03-13T15:20:06;12.57;;;1.73;;
75691;SDS011;64307;52.508;6.090;2023-03-13T15:22:38;14.88;;;2.45;;
75691;SDS011;64307;52.508;6.090;2023-03-13T15:25:14;10.48;;;2.60;;
75691;SDS011;64307;52.508;6.090;2023-03-13T15:27:44;11.50;;;2.65;;
75691;SDS011;64307;52.508;6.090;2023-03-13T15:30:13;12.13;;;1.75;;
75691;SDS011;64307;52.508;6.090;2023-03-13T15:32:43;11.40;;;1.80;;
75691;SDS011;64307;52.508;6.090;2023-03-13T15:35:17;12.57;;;1.95;;
75691;SDS011;64307;52.508;6.090;2023-03-13T15:37:48;10.90;;;1.83;;
75691;SDS011;64307;52.508;6.090;2023-03-13T15:40:14;10.05;;;2.22;;
75691;SDS011;64307;52.508;6.090;2023-03-13T15:42:40;12.60;;;2.25;;
75691;SDS011;64307;52.508;6.090;2023-03-13T15:45:06;12.10;;;2.13;;
75691;SDS011;64307;52.508;6.090;2023-03-13T15:47:31;9.13;;;1.20;;
75691;SDS011;64307;52.508;6.090;2023-03-13T15:49:57;13.88;;;1.55;;
75691;SDS011;64307;52.508;6.090;2023-03-13T15:52:22;12.00;;;2.53;;
75691;SDS011;64307;52.508;6.090;2023-03-13T15:54:48;16.60;;;2.63;;
75691;SDS011;64307;52.508;6.090;2023-03-13T15:57:15;11.80;;;1.75;;
75691;SDS011;64307;52.508;6.090;2023-03-13T15:59:43;11.70;;;3.05;;
75691;SDS011;64307;52.508;6.090;2023-03-13T16:02:14;11.73;;;1.77;;
75691;SDS011;64307;52.508;6.090;2023-03-13T16:04:41;15.23;;;2.00;;
75691;SDS011;64307;52.508;6.090;2023-03-13T16:07:08;15.65;;;2.13;;
75691;SDS011;64307;52.508;6.090;2023-03-13T16:09:39;11.07;;;1.95;;
75691;SDS011;64307;52.508;6.090;2023-03-13T16:12:05;16.85;;;1.75;;
75691;SDS011;64307;52.508;6.090;2023-03-13T16:14:30;16.75;;;3.03;;
75691;SDS011;64307;52.508;6.090;2023-03-13T16:16:56;12.30;;;1.90;;
75691;SDS011;64307;52.508;6.090;2023-03-13T16:19:21;11.93;;;2.03;;
75691;SDS011;64307;52.508;6.090;2023-03-13T16:21:47;9.05;;;1.95;;
75691;SDS011;64307;52.508;6.090;2023-03-13T16:24:13;13.90;;;1.85;;
75691;SDS011;64307;52.508;6.090;2023-03-13T16:26:39;10.95;;;1.55;;
75691;SDS011;64307;52.508;6.090;2023-03-13T16:29:04;13.52;;;1.63;;
75691;SDS011;64307;52.508;6.090;2023-03-13T16:31:31;11.50;;;1.48;;
75691;SDS011;64307;52.508;6.090;2023-03-13T16:33:57;11.68;;;1.40;;
75691;SDS011;64307;52.508;6.090;2023-03-13T16:36:27;11.55;;;2.00;;
75691;SDS011;64307;52.508;6.090;2023-03-13T16:38:55;14.88;;;2.58;;
75691;SDS011;64307;52.508;6.090;2023-03-13T16:41:21;11.50;;;2.15;;
75691;SDS011;64307;52.508;6.090;2023-03-13T16:43:48;13.93;;;1.92;;
75691;SDS011;64307;52.508;6.090;2023-03-13T16:48:44;15.43;;;2.92;;
75691;SDS011;64307;52.508;6.090;2023-03-13T16:51:29;14.65;;;2.42;;
75691;SDS011;64307;52.508;6.090;2023-03-13T16:53:56;17.00;;;2.33;;
75691;SDS011;64307;52.508;6.090;2023-03-13T16:56:28;14.80;;;1.88;;
75691;SDS011;64307;52.508;6.090;2023-03-13T16:58:57;15.52;;;2.85;;
75691;SDS011;64307;52.508;6.090;2023-03-13T17:01:23;11.32;;;2.10;;
75691;SDS011;64307;52.508;6.090;2023-03-13T17:03:50;15.18;;;2.08;;
75691;SDS011;64307;52.508;6.090;2023-03-13T17:06:17;13.38;;;2.30;;
75691;SDS011;64307;52.508;6.090;2023-03-13T17:08:54;15.27;;;2.03;;
75691;SDS011;64307;52.508;6.090;2023-03-13T17:11:20;10.15;;;1.52;;
75691;SDS011;64307;52.508;6.090;2023-03-13T17:13:47;17.23;;;2.65;;
75691;SDS011;64307;52.508;6.090;2023-03-13T17:18:44;15.80;;;2.08;;
75691;SDS011;64307;52.508;6.090;2023-03-13T17:21:12;14.57;;;2.25;;
75691;SDS011;64307;52.508;6.090;2023-03-13T17:23:40;14.45;;;2.40;;
75691;SDS011;64307;52.508;6.090;2023-03-13T17:26:25;15.52;;;2.28;;
75691;SDS011;64307;52.508;6.090;2023-03-13T17:28:58;17.42;;;3.13;;
75691;SDS011;64307;52.508;6.090;2023-03-13T17:31:25;17.35;;;2.05;;
75691;SDS011;64307;52.508;6.090;2023-03-13T17:33:51;18.23;;;1.88;;
75691;SDS011;64307;52.508;6.090;2023-03-13T17:36:21;16.73;;;2.03;;
75691;SDS011;64307;52.508;6.090;2023-03-13T17:38:49;20.63;;;2.20;;
75691;SDS011;64307;52.508;6.090;2023-03-13T17:41:20;18.73;;;2.85;;
75691;SDS011;64307;52.508;6.090;2023-03-13T17:43:47;26.58;;;2.38;;
75691;SDS011;64307;52.508;6.090;2023-03-13T17:46:14;18.95;;;2.42;;
75691;SDS011;64307;52.508;6.090;2023-03-13T17:48:42;17.00;;;3.33;;
75691;SDS011;64307;52.508;6.090;2023-03-13T17:51:14;15.32;;;2.60;;